CTM85 LFPG-LIMC
Flight info
| Callsign | CTM85 |
|---|---|
| Flight time | N/A |
| Altitude | 33000 |
| Route | LANVI DCT DEVDI DCT BASGO Z424 RIXUV |
| Aircraft | A400/H-SDFGHIRWXYLB1/L4T |
Departure
| Time | N/A |
|---|---|
| Airport | Charles de Gaulle International Airport (LFPG) |
Arrival
| Time | 2026-05-04 16:14 |
|---|---|
| Airport | Milan Malpensa International Airport (LIMC) |
| Time | Latitude | Longitude | Altitude | Speed | Heading |
|---|---|---|---|---|---|
| 2026-05-04 15:51 | 46.87399 | 8.09988 | 35011 ft | 390 kts | 161° |
| 2026-05-04 15:51 | 46.82410 | 8.13113 | 35018 ft | 390 kts | 161° |
| 2026-05-04 15:52 | 46.77414 | 8.16235 | 35013 ft | 391 kts | 161° |
| 2026-05-04 15:52 | 46.72387 | 8.19370 | 35021 ft | 393 kts | 161° |
| 2026-05-04 15:53 | 46.67353 | 8.22506 | 35024 ft | 393 kts | 161° |
| 2026-05-04 15:53 | 46.62321 | 8.25637 | 35036 ft | 394 kts | 161° |
| 2026-05-04 15:54 | 46.57284 | 8.28761 | 35034 ft | 393 kts | 161° |
| 2026-05-04 15:54 | 46.54799 | 8.30303 | 34666 ft | 384 kts | 161° |
| 2026-05-04 15:54 | 46.52349 | 8.31821 | 33973 ft | 385 kts | 161° |
| 2026-05-04 15:55 | 46.49907 | 8.33326 | 33217 ft | 388 kts | 161° |
| 2026-05-04 15:55 | 46.47417 | 8.34859 | 32597 ft | 389 kts | 161° |
| 2026-05-04 15:55 | 46.44926 | 8.36393 | 31975 ft | 389 kts | 161° |
| 2026-05-04 15:55 | 46.42426 | 8.37932 | 31339 ft | 390 kts | 160° |
| 2026-05-04 15:56 | 46.39953 | 8.39455 | 30648 ft | 387 kts | 160° |
| 2026-05-04 15:56 | 46.37447 | 8.40997 | 29983 ft | 389 kts | 160° |
| 2026-05-04 15:56 | 46.34944 | 8.42534 | 29252 ft | 390 kts | 160° |
| 2026-05-04 15:56 | 46.32460 | 8.44060 | 28248 ft | 387 kts | 160° |
| 2026-05-04 15:57 | 46.29967 | 8.45588 | 27239 ft | 390 kts | 160° |
| 2026-05-04 15:57 | 46.27370 | 8.46835 | 26470 ft | 395 kts | 169° |
| 2026-05-04 15:57 | 46.24667 | 8.47528 | 25889 ft | 395 kts | 173° |
| 2026-05-04 15:57 | 46.21942 | 8.48055 | 25307 ft | 393 kts | 175° |
| 2026-05-04 15:58 | 46.19239 | 8.48481 | 24685 ft | 390 kts | 176° |
| 2026-05-04 15:58 | 46.16580 | 8.48845 | 24127 ft | 388 kts | 176° |
| 2026-05-04 15:58 | 46.13907 | 8.49198 | 23436 ft | 383 kts | 176° |
| 2026-05-04 15:58 | 46.11291 | 8.49781 | 22856 ft | 381 kts | 168° |
| 2026-05-04 15:59 | 46.08743 | 8.50832 | 22263 ft | 381 kts | 165° |
| 2026-05-04 15:59 | 46.06238 | 8.52032 | 21678 ft | 378 kts | 163° |
| 2026-05-04 15:59 | 46.03770 | 8.53321 | 21107 ft | 375 kts | 162° |
| 2026-05-04 15:59 | 46.01342 | 8.54643 | 20537 ft | 371 kts | 162° |
| 2026-05-04 16:00 | 45.98996 | 8.55942 | 20358 ft | 349 kts | 162° |
| 2026-05-04 16:00 | 45.96802 | 8.57161 | 20263 ft | 327 kts | 162° |
| 2026-05-04 16:00 | 45.94710 | 8.58313 | 20168 ft | 322 kts | 163° |
| 2026-05-04 16:00 | 45.92611 | 8.59450 | 19962 ft | 323 kts | 163° |
| 2026-05-04 16:01 | 45.90535 | 8.60704 | 19473 ft | 324 kts | 155° |
| 2026-05-04 16:01 | 45.88620 | 8.62435 | 19039 ft | 325 kts | 150° |
| 2026-05-04 16:01 | 45.86792 | 8.64327 | 18636 ft | 325 kts | 147° |
| 2026-05-04 16:01 | 45.85008 | 8.66324 | 18164 ft | 324 kts | 146° |
| 2026-05-04 16:02 | 45.83260 | 8.68361 | 17736 ft | 323 kts | 144° |
| 2026-05-04 16:02 | 45.81550 | 8.70381 | 17318 ft | 323 kts | 144° |
| 2026-05-04 16:02 | 45.78098 | 8.74451 | 16486 ft | 319 kts | 144° |
| 2026-05-04 16:03 | 45.76312 | 8.76286 | 16047 ft | 314 kts | 151° |
| 2026-05-04 16:03 | 45.74464 | 8.77901 | 15640 ft | 309 kts | 153° |
| 2026-05-04 16:03 | 45.72616 | 8.79407 | 15263 ft | 303 kts | 155° |
| 2026-05-04 16:03 | 45.70747 | 8.80861 | 14933 ft | 306 kts | 155° |
| 2026-05-04 16:04 | 45.68875 | 8.82286 | 14469 ft | 305 kts | 156° |
| 2026-05-04 16:04 | 45.65139 | 8.85114 | 13977 ft | 303 kts | 155° |
| 2026-05-04 16:04 | 45.63278 | 8.86525 | 13584 ft | 301 kts | 156° |
| 2026-05-04 16:05 | 45.61351 | 8.87570 | 13166 ft | 294 kts | 166° |
| 2026-05-04 16:05 | 45.59384 | 8.88325 | 12817 ft | 290 kts | 169° |
| 2026-05-04 16:05 | 45.55466 | 8.89497 | 12261 ft | 286 kts | 171° |
| 2026-05-04 16:06 | 45.53514 | 8.90011 | 11967 ft | 284 kts | 172° |
| 2026-05-04 16:06 | 45.48495 | 8.91318 | 11065 ft | 268 kts | 171° |
| 2026-05-04 16:07 | 45.46073 | 8.91962 | 10359 ft | 267 kts | 170° |
| 2026-05-04 16:07 | 45.40623 | 8.92327 | 8671 ft | 264 kts | 199° |
| 2026-05-04 16:08 | 45.39086 | 8.90907 | 8105 ft | 267 kts | 224° |
| 2026-05-04 16:08 | 45.37255 | 8.83475 | 6390 ft | 273 kts | 271° |
| 2026-05-04 16:09 | 45.38229 | 8.78300 | 5170 ft | 274 kts | 302° |
| 2026-05-04 16:09 | 45.41457 | 8.75966 | 3951 ft | 275 kts | 6° |
| 2026-05-04 16:10 | 45.44889 | 8.78119 | 3054 ft | 265 kts | 11° |
| 2026-05-04 16:11 | 45.49683 | 8.77025 | 2974 ft | 204 kts | 347° |
| 2026-05-04 16:11 | 45.51033 | 8.76664 | 2852 ft | 194 kts | 348° |
| 2026-05-04 16:12 | 45.54628 | 8.75666 | 2117 ft | 157 kts | 347° |
| 2026-05-04 16:12 | 45.57495 | 8.74874 | 1559 ft | 130 kts | 346° |
| 2026-05-04 16:13 | 45.59263 | 8.74386 | 1201 ft | 128 kts | 346° |
| 2026-05-04 16:13 | 45.61015 | 8.73908 | 897 ft | 129 kts | 347° |
| 2026-05-04 16:14 | 45.62652 | 8.73446 | 753 ft | 95 kts | 349° |
| 2026-05-04 16:14 | 45.63237 | 8.73120 | 758 ft | 27 kts | 303° |
| 2026-05-04 16:15 | 45.63400 | 8.72569 | 755 ft | 16 kts | 257° |
| 2026-05-04 16:16 | 45.63354 | 8.72258 | 756 ft | 20 kts | 259° |
| 2026-05-04 16:16 | 45.63303 | 8.71864 | 759 ft | 11 kts | 259° |
| 2026-05-04 16:17 | 45.63286 | 8.71708 | 762 ft | 1 kts | 287° |
| 2026-05-04 16:18 | 45.63281 | 8.71674 | 762 ft | 2 kts | 259° |
| 2026-05-04 16:18 | 45.63283 | 8.71639 | 762 ft | 4 kts | 294° |
| 2026-05-04 16:19 | 45.63348 | 8.71518 | 757 ft | 0 kts | 305° |